createdAt,value
2017-04-29T00:01:05.037Z,71.30
2017-04-29T00:03:32.385Z,71.30
2017-04-29T00:05:59.269Z,71.30
2017-04-29T00:08:26.590Z,70.80
2017-04-29T00:10:53.918Z,70.30
2017-04-29T00:13:21.195Z,70.30
2017-04-29T00:15:48.479Z,70.50
2017-04-29T00:18:15.786Z,70.50
2017-04-29T00:20:43.058Z,70.60
2017-04-29T00:23:10.374Z,70.90
2017-04-29T00:25:38.018Z,71.20
2017-04-29T00:28:05.309Z,71.20
2017-04-29T00:30:32.645Z,71.20
2017-04-29T00:33:00.296Z,71.10
2017-04-29T00:35:27.574Z,71.10
2017-04-29T00:37:55.273Z,71.10
2017-04-29T00:40:22.562Z,71.00
2017-04-29T00:42:49.841Z,70.90
2017-04-29T00:45:17.161Z,70.90
2017-04-29T00:47:44.445Z,71.00
2017-04-29T00:50:12.114Z,71.00
2017-04-29T00:52:39.837Z,71.20
2017-04-29T00:55:07.110Z,71.20
2017-04-29T00:57:34.384Z,71.30
2017-04-29T01:00:02.073Z,71.50
2017-04-29T01:02:29.356Z,71.60
2017-04-29T01:04:56.632Z,71.80
2017-04-29T01:07:23.946Z,71.90
2017-04-29T01:09:51.226Z,71.90
2017-04-29T01:12:18.497Z,72.30
2017-04-29T01:14:45.845Z,72.30
2017-04-29T01:17:13.125Z,72.40
2017-04-29T01:19:40.781Z,72.40
2017-04-29T01:22:08.477Z,72.40
2017-04-29T01:24:35.757Z,72.90
2017-04-29T01:27:03.047Z,73.00
2017-04-29T01:29:29.987Z,73.00
2017-04-29T01:31:57.274Z,73.10
2017-04-29T01:34:25.019Z,73.20
2017-04-29T01:36:52.068Z,73.20
2017-04-29T01:39:19.351Z,73.70
2017-04-29T01:41:46.230Z,73.70
2017-04-29T01:44:13.154Z,73.70
2017-04-29T01:46:40.425Z,73.70
2017-04-29T01:49:08.269Z,73.60
2017-04-29T01:51:35.581Z,73.60
2017-04-29T01:54:02.863Z,73.50
2017-04-29T01:56:30.357Z,73.30
2017-04-29T01:58:57.282Z,73.30
2017-04-29T02:01:24.169Z,73.20
2017-04-29T02:03:51.445Z,73.30
2017-04-29T02:06:18.895Z,73.50
2017-04-29T02:08:45.809Z,73.50
2017-04-29T02:11:13.166Z,73.80
2017-04-29T02:13:40.510Z,73.80
2017-04-29T02:16:07.786Z,73.70
2017-04-29T02:18:34.671Z,73.70
2017-04-29T02:21:02.389Z,72.70
2017-04-29T02:23:29.666Z,73.10
2017-04-29T02:25:56.954Z,73.10
2017-04-29T02:28:23.882Z,73.10
2017-04-29T02:30:51.154Z,72.80
2017-04-29T02:33:18.806Z,72.50
2017-04-29T02:35:46.526Z,72.60
2017-04-29T02:38:13.810Z,73.10
2017-04-29T02:40:41.454Z,72.80
2017-04-29T02:43:08.378Z,72.80
2017-04-29T02:45:35.666Z,73.30
2017-04-29T02:48:02.938Z,73.20
2017-04-29T02:50:30.622Z,73.20
2017-04-29T02:52:57.903Z,73.50
2017-04-29T02:55:25.190Z,73.40
2017-04-29T02:57:52.509Z,73.30
2017-04-29T03:00:19.789Z,73.30
2017-04-29T03:02:47.081Z,73.30
2017-04-29T03:05:14.402Z,73.10
2017-04-29T03:07:41.677Z,72.50
2017-04-29T03:10:09.330Z,72.90
2017-04-29T03:12:36.261Z,72.90
2017-04-29T03:15:03.550Z,73.20
2017-04-29T03:17:30.833Z,72.40
2017-04-29T03:19:58.154Z,71.80
2017-04-29T03:22:25.037Z,71.80
2017-04-29T03:24:52.315Z,71.40
2017-04-29T03:27:19.633Z,71.40
2017-04-29T03:29:46.922Z,71.60
2017-04-29T03:32:14.216Z,72.00
2017-04-29T03:34:41.909Z,71.70
2017-04-29T03:37:08.797Z,71.80
2017-04-29T03:39:36.069Z,71.80
2017-04-29T03:42:03.762Z,71.80
2017-04-29T03:44:30.641Z,71.80
2017-04-29T03:46:57.919Z,71.80
2017-04-29T03:49:25.613Z,71.80
2017-04-29T03:51:52.890Z,71.80
2017-04-29T03:54:20.173Z,71.50
2017-04-29T03:56:47.490Z,71.50
2017-04-29T03:59:14.771Z,71.60
2017-04-29T04:01:42.050Z,71.40
2017-04-29T04:04:09.507Z,71.10
2017-04-29T04:06:36.390Z,71.10
2017-04-29T04:09:03.671Z,71.30
2017-04-29T04:11:30.994Z,71.40
2017-04-29T04:13:57.882Z,71.40
2017-04-29T04:16:25.169Z,71.50
2017-04-29T04:18:52.862Z,71.80
2017-04-29T04:21:20.578Z,71.70
2017-04-29T04:23:47.857Z,71.50
2017-04-29T04:26:14.777Z,71.50
2017-04-29T04:28:42.049Z,71.10
2017-04-29T04:31:08.940Z,71.10
2017-04-29T04:33:36.286Z,71.90
2017-04-29T04:36:03.562Z,72.40
2017-04-29T04:38:30.441Z,72.40
2017-04-29T04:40:57.797Z,72.70
2017-04-29T04:43:25.093Z,72.60
2017-04-29T04:45:52.369Z,72.50
2017-04-29T04:48:19.685Z,71.80
2017-04-29T04:50:46.958Z,71.70
2017-04-29T04:53:14.291Z,71.50
2017-04-29T04:55:41.571Z,71.70
2017-04-29T04:58:08.855Z,71.10
2017-04-29T05:00:36.198Z,71.40
2017-04-29T05:03:03.473Z,71.70
2017-04-29T05:05:30.751Z,72.30
2017-04-29T05:07:57.746Z,72.30
2017-04-29T05:10:24.640Z,72.60
2017-04-29T05:12:52.362Z,72.20
2017-04-29T05:15:19.686Z,71.90
2017-04-29T05:17:46.973Z,71.60
2017-04-29T05:20:14.254Z,71.80
2017-04-29T05:22:41.182Z,71.80
2017-04-29T05:25:08.458Z,71.60
2017-04-29T05:27:35.791Z,71.50
2017-04-29T05:30:03.123Z,71.30
2017-04-29T05:32:30.402Z,71.10
2017-04-29T05:34:57.679Z,70.80
2017-04-29T05:37:25.009Z,70.80
2017-04-29T05:39:52.294Z,70.60
2017-04-29T05:42:19.566Z,70.80
2017-04-29T05:44:47.250Z,70.90
2017-04-29T05:47:14.532Z,70.70
2017-04-29T05:49:41.837Z,70.30
2017-04-29T05:52:09.583Z,70.70
2017-04-29T05:54:36.462Z,70.70
2017-04-29T05:57:03.337Z,70.70
2017-04-29T05:59:30.661Z,71.20
2017-04-29T06:01:57.933Z,70.80
2017-04-29T06:04:24.824Z,70.80
2017-04-29T06:06:52.158Z,70.60
2017-04-29T06:09:19.437Z,70.50
2017-04-29T06:11:46.725Z,70.20
2017-04-29T06:14:14.071Z,69.90
2017-04-29T06:16:41.350Z,69.90
2017-04-29T06:19:08.225Z,69.90
2017-04-29T06:21:35.949Z,69.30
2017-04-29T06:24:03.238Z,69.40
2017-04-29T06:26:30.122Z,69.30
2017-04-29T06:28:57.468Z,69.50
2017-04-29T06:31:24.738Z,69.00
2017-04-29T06:33:52.015Z,68.70
2017-04-29T06:36:19.337Z,68.50
2017-04-29T06:38:46.613Z,68.00
2017-04-29T06:41:13.898Z,68.50
2017-04-29T06:43:41.235Z,68.70
2017-04-29T06:46:08.513Z,68.90
2017-04-29T06:48:35.395Z,68.90
2017-04-29T06:51:02.714Z,67.40
2017-04-29T06:53:29.996Z,66.70
2017-04-29T06:55:57.278Z,66.70
2017-04-29T06:58:24.638Z,66.40
2017-04-29T07:00:51.931Z,65.50
2017-04-29T07:03:19.254Z,64.90
2017-04-29T07:05:46.582Z,64.20
2017-04-29T07:08:13.650Z,64.20
2017-04-29T07:10:40.929Z,62.50
2017-04-29T07:13:08.256Z,61.10
2017-04-29T07:15:35.533Z,61.20
2017-04-29T07:18:02.810Z,60.20
2017-04-29T07:20:30.141Z,60.40
2017-04-29T07:22:57.025Z,60.40
2017-04-29T07:25:24.675Z,60.00
2017-04-29T07:27:52.034Z,60.30
2017-04-29T07:30:19.698Z,60.40
2017-04-29T07:32:47.352Z,60.60
2017-04-29T07:35:14.280Z,60.60
2017-04-29T07:37:41.562Z,57.30
2017-04-29T07:40:09.207Z,57.80
2017-04-29T07:42:36.135Z,57.80
2017-04-29T07:45:03.518Z,58.90
2017-04-29T07:47:30.807Z,59.50
2017-04-29T07:49:58.146Z,59.30
2017-04-29T07:52:25.029Z,59.30
2017-04-29T07:54:51.920Z,58.90
2017-04-29T07:57:18.865Z,58.50
2017-04-29T07:59:46.147Z,56.60
2017-04-29T08:02:13.425Z,56.50
2017-04-29T08:04:40.751Z,57.00
2017-04-29T08:07:08.036Z,57.30
2017-04-29T08:09:35.317Z,57.50
2017-04-29T08:12:02.593Z,57.20
2017-04-29T08:14:30.246Z,56.90
2017-04-29T08:16:57.526Z,57.50
2017-04-29T08:19:25.174Z,57.90
2017-04-29T08:21:52.450Z,57.60
2017-04-29T08:24:19.742Z,57.30
2017-04-29T08:26:47.026Z,57.00
2017-04-29T08:29:14.355Z,55.60
2017-04-29T08:31:41.634Z,56.20
2017-04-29T08:34:08.514Z,56.30
2017-04-29T08:36:35.844Z,57.70
2017-04-29T08:39:03.156Z,56.80
2017-04-29T08:41:30.469Z,55.80
2017-04-29T08:43:58.124Z,56.00
2017-04-29T08:46:25.770Z,54.80
2017-04-29T08:48:53.430Z,55.40
2017-04-29T08:51:20.700Z,55.60
2017-04-29T08:53:47.976Z,55.10
2017-04-29T08:56:14.865Z,55.10
2017-04-29T08:58:42.138Z,54.40
2017-04-29T09:01:09.417Z,53.30
2017-04-29T09:03:37.064Z,52.20
2017-04-29T09:06:04.337Z,52.50
2017-04-29T09:08:31.986Z,52.60
2017-04-29T09:10:58.866Z,52.60
2017-04-29T09:13:26.180Z,53.10
2017-04-29T09:15:53.062Z,53.10
2017-04-29T09:18:20.333Z,53.40
2017-04-29T09:20:47.610Z,52.80
2017-04-29T09:23:14.993Z,51.60
2017-04-29T09:25:41.869Z,51.60
2017-04-29T09:28:09.151Z,52.50
2017-04-29T09:30:36.429Z,53.60
2017-04-29T09:33:03.701Z,54.10
2017-04-29T09:35:30.982Z,55.10
2017-04-29T09:37:58.262Z,53.90
2017-04-29T09:40:25.182Z,53.90
2017-04-29T09:42:52.063Z,54.10
2017-04-29T09:45:19.346Z,51.90
2017-04-29T09:47:46.623Z,52.80
2017-04-29T09:50:14.266Z,52.40
2017-04-29T09:52:41.553Z,52.70
2017-04-29T09:55:08.838Z,53.40
2017-04-29T09:57:36.156Z,54.50
2017-04-29T10:00:03.429Z,55.20
2017-04-29T10:02:30.701Z,55.40
2017-04-29T10:04:58.045Z,54.20
2017-04-29T10:07:24.924Z,54.20
2017-04-29T10:09:52.224Z,54.30
2017-04-29T10:12:19.150Z,54.30
2017-04-29T10:14:46.805Z,53.10
2017-04-29T10:17:13.685Z,53.10
2017-04-29T10:19:40.998Z,52.20
2017-04-29T10:22:07.882Z,52.20
2017-04-29T10:24:34.851Z,51.30
2017-04-29T10:27:02.170Z,51.30
2017-04-29T10:29:30.018Z,52.00
2017-04-29T10:31:57.373Z,52.00
2017-04-29T10:34:25.202Z,52.20
2017-04-29T10:36:52.481Z,52.60
2017-04-29T10:39:19.805Z,52.70
2017-04-29T10:41:47.151Z,52.40
2017-04-29T10:44:14.440Z,53.00
2017-04-29T10:46:41.722Z,53.10
2017-04-29T10:49:09.445Z,52.30
2017-04-29T10:51:36.746Z,53.00
2017-04-29T10:54:04.497Z,52.80
2017-04-29T10:56:31.450Z,52.80
2017-04-29T10:58:58.348Z,51.20
2017-04-29T11:01:25.625Z,52.20
2017-04-29T11:03:52.646Z,52.20
2017-04-29T11:06:19.926Z,53.00
2017-04-29T11:08:47.262Z,53.10
2017-04-29T11:11:14.194Z,53.10
2017-04-29T11:13:41.073Z,52.70
2017-04-29T11:16:08.354Z,51.40
2017-04-29T11:18:35.680Z,51.30
2017-04-29T11:21:02.951Z,50.10
2017-04-29T11:23:30.226Z,49.50
2017-04-29T11:25:57.218Z,49.60
2017-04-29T11:28:24.494Z,50.10
2017-04-29T11:30:51.772Z,51.10
2017-04-29T11:33:18.708Z,51.10
2017-04-29T11:35:45.991Z,52.40
2017-04-29T11:38:13.271Z,52.40
2017-04-29T11:40:40.675Z,52.10
2017-04-29T11:43:07.558Z,52.10
2017-04-29T11:45:34.878Z,50.60
2017-04-29T11:48:02.155Z,50.20
2017-04-29T11:50:29.434Z,49.30
2017-04-29T11:52:56.755Z,50.70
2017-04-29T11:55:24.406Z,50.90
2017-04-29T11:57:51.286Z,50.90
2017-04-29T12:00:18.624Z,50.90
2017-04-29T12:02:45.911Z,50.30
2017-04-29T12:05:13.217Z,50.60
2017-04-29T12:07:40.530Z,50.70
2017-04-29T12:10:07.809Z,50.20
2017-04-29T12:12:35.082Z,50.00
2017-04-29T12:15:02.778Z,50.40
2017-04-29T12:17:30.053Z,50.00
2017-04-29T12:19:57.335Z,49.60
2017-04-29T12:22:24.261Z,49.70
2017-04-29T12:24:51.546Z,49.70
2017-04-29T12:27:18.821Z,49.30
2017-04-29T12:29:46.545Z,50.20
2017-04-29T12:32:13.827Z,50.50
2017-04-29T12:34:41.102Z,51.40
2017-04-29T12:37:08.797Z,51.40
2017-04-29T12:39:35.679Z,51.40
2017-04-29T12:42:02.954Z,50.00
2017-04-29T12:44:30.689Z,49.30
2017-04-29T12:46:57.961Z,48.50
2017-04-29T12:49:25.235Z,48.90
2017-04-29T12:51:52.166Z,48.90
2017-04-29T12:54:19.446Z,49.60
2017-04-29T12:56:46.331Z,49.60
2017-04-29T12:59:13.651Z,49.60
2017-04-29T13:01:40.926Z,50.00
2017-04-29T13:04:08.206Z,50.10
2017-04-29T13:06:35.517Z,49.80
2017-04-29T13:09:02.798Z,49.10
2017-04-29T13:11:30.450Z,49.10
2017-04-29T13:13:57.775Z,48.90
2017-04-29T13:16:25.166Z,48.50
2017-04-29T13:18:52.522Z,49.10
2017-04-29T13:21:19.841Z,49.40
2017-04-29T13:23:47.180Z,49.50
2017-04-29T13:26:14.080Z,49.50
2017-04-29T13:28:41.407Z,49.40
2017-04-29T13:31:08.692Z,49.30
2017-04-29T13:33:35.575Z,49.30
2017-04-29T13:36:02.494Z,49.70
2017-04-29T13:38:30.246Z,49.40
2017-04-29T13:40:57.123Z,49.40
2017-04-29T13:43:24.465Z,49.20
2017-04-29T13:45:51.351Z,49.20
2017-04-29T13:48:18.643Z,48.80
2017-04-29T13:50:45.969Z,49.70
2017-04-29T13:53:13.247Z,49.00
2017-04-29T13:55:40.530Z,48.70
2017-04-29T13:58:08.221Z,49.10
2017-04-29T14:00:35.107Z,49.10
2017-04-29T14:03:02.417Z,48.30
2017-04-29T14:05:29.825Z,48.10
2017-04-29T14:07:56.715Z,48.10
2017-04-29T14:10:24.002Z,47.70
2017-04-29T14:12:51.318Z,47.90
2017-04-29T14:15:18.635Z,48.50
2017-04-29T14:17:45.992Z,48.80
2017-04-29T14:20:12.915Z,48.80
2017-04-29T14:22:40.193Z,48.60
2017-04-29T14:25:07.610Z,48.30
2017-04-29T14:27:34.970Z,48.50
2017-04-29T14:30:01.850Z,48.50
2017-04-29T14:32:28.730Z,48.30
2017-04-29T14:34:56.379Z,47.80
2017-04-29T14:37:23.258Z,47.80
2017-04-29T14:39:50.653Z,47.50
2017-04-29T14:42:17.978Z,48.20
2017-04-29T14:44:45.255Z,48.30
2017-04-29T14:47:12.534Z,48.70
2017-04-29T14:49:40.222Z,48.10
2017-04-29T14:52:07.498Z,47.70
2017-04-29T14:54:34.770Z,46.80
2017-04-29T14:57:02.085Z,45.70
2017-04-29T14:59:28.966Z,45.80
2017-04-29T15:01:56.242Z,46.40
2017-04-29T15:04:23.190Z,46.40
2017-04-29T15:06:50.109Z,45.80
2017-04-29T15:09:17.379Z,45.90
2017-04-29T15:11:44.707Z,45.50
2017-04-29T15:14:11.654Z,45.60
2017-04-29T15:16:39.012Z,45.60
2017-04-29T15:19:06.334Z,45.90
2017-04-29T15:21:33.635Z,45.40
2017-04-29T15:24:00.915Z,45.10
2017-04-29T15:26:27.835Z,45.10
2017-04-29T15:28:55.114Z,44.90
2017-04-29T15:31:22.472Z,45.10
2017-04-29T15:33:49.782Z,44.30
2017-04-29T15:36:16.697Z,44.30
2017-04-29T15:38:43.974Z,43.60
2017-04-29T15:41:10.935Z,43.60
2017-04-29T15:43:38.214Z,44.70
2017-04-29T15:46:05.489Z,44.90
2017-04-29T15:48:33.183Z,44.30
2017-04-29T15:51:00.457Z,44.60
2017-04-29T15:53:27.814Z,44.70
2017-04-29T15:55:55.135Z,44.60
2017-04-29T15:58:22.014Z,44.60
2017-04-29T16:00:49.285Z,43.90
2017-04-29T16:03:16.665Z,45.10
2017-04-29T16:05:43.978Z,45.60
2017-04-29T16:08:11.258Z,44.80
2017-04-29T16:10:39.041Z,44.50
2017-04-29T16:13:06.318Z,45.30
2017-04-29T16:15:33.969Z,45.00
2017-04-29T16:18:01.681Z,45.00
2017-04-29T16:20:28.954Z,44.60
2017-04-29T16:22:56.238Z,44.10
2017-04-29T16:25:23.556Z,43.10
2017-04-29T16:27:50.829Z,42.50
2017-04-29T16:30:18.102Z,41.20
2017-04-29T16:32:45.511Z,40.40
2017-04-29T16:35:12.805Z,40.10
2017-04-29T16:37:39.711Z,40.10
2017-04-29T16:40:07.030Z,38.60
2017-04-29T16:42:34.698Z,37.90
2017-04-29T16:45:01.984Z,37.80
2017-04-29T16:47:29.304Z,37.10
2017-04-29T16:49:56.579Z,36.80
2017-04-29T16:52:23.922Z,36.70
2017-04-29T16:54:51.275Z,36.30
2017-04-29T16:57:18.190Z,36.30
2017-04-29T16:59:45.505Z,37.60
2017-04-29T17:02:12.784Z,37.80
2017-04-29T17:04:40.059Z,38.20
2017-04-29T17:07:07.808Z,39.70
2017-04-29T17:09:35.094Z,40.90
2017-04-29T17:12:02.750Z,42.10
2017-04-29T17:14:30.075Z,42.40
2017-04-29T17:16:57.348Z,42.80
2017-04-29T17:19:25.028Z,43.30
2017-04-29T17:21:52.717Z,43.70
2017-04-29T17:24:19.989Z,43.50
2017-04-29T17:26:47.274Z,43.50
2017-04-29T17:29:14.620Z,43.60
2017-04-29T17:31:41.941Z,43.50
2017-04-29T17:34:09.221Z,43.30
2017-04-29T17:36:36.537Z,42.70
2017-04-29T17:39:03.813Z,42.00
2017-04-29T17:41:31.086Z,41.40
2017-04-29T17:43:58.402Z,41.00
2017-04-29T17:46:25.680Z,40.90
2017-04-29T17:48:52.957Z,40.90
2017-04-29T17:51:20.326Z,40.90
2017-04-29T17:53:47.654Z,40.90
2017-04-29T17:56:14.930Z,41.10
2017-04-29T17:58:42.262Z,40.70
2017-04-29T18:01:09.542Z,40.80
2017-04-29T18:03:36.862Z,41.20
2017-04-29T18:06:04.178Z,41.60
2017-04-29T18:08:31.920Z,41.30
2017-04-29T18:10:58.807Z,41.30
2017-04-29T18:13:26.131Z,42.50
2017-04-29T18:15:53.791Z,43.10
2017-04-29T18:18:20.672Z,43.00
2017-04-29T18:20:48.009Z,44.50
2017-04-29T18:23:14.898Z,44.50
2017-04-29T18:25:42.181Z,46.80
2017-04-29T18:28:09.106Z,46.80
2017-04-29T18:30:36.791Z,47.80
2017-04-29T18:33:04.075Z,48.40
2017-04-29T18:35:31.389Z,48.40
2017-04-29T18:37:58.665Z,48.90
2017-04-29T18:40:26.307Z,49.60
2017-04-29T18:42:53.647Z,49.90
2017-04-29T18:45:20.941Z,49.90
2017-04-29T18:47:48.587Z,50.10
2017-04-29T18:50:15.933Z,50.30
2017-04-29T18:52:43.214Z,50.40
2017-04-29T18:55:10.859Z,50.90
2017-04-29T18:57:37.912Z,50.90
2017-04-29T19:00:05.185Z,51.00
2017-04-29T19:02:32.890Z,51.30
2017-04-29T19:04:59.806Z,51.30
2017-04-29T19:07:27.093Z,51.70
2017-04-29T19:09:54.419Z,51.80
2017-04-29T19:12:21.294Z,51.80
2017-04-29T19:14:48.577Z,51.90
2017-04-29T19:17:15.510Z,51.90
2017-04-29T19:19:42.792Z,52.50
2017-04-29T19:22:10.437Z,52.60
2017-04-29T19:24:37.768Z,52.70
2017-04-29T19:27:05.114Z,52.80
2017-04-29T19:29:31.998Z,52.80
2017-04-29T19:31:59.335Z,52.90
2017-04-29T19:34:26.622Z,53.00
2017-04-29T19:36:54.272Z,53.20
2017-04-29T19:39:21.615Z,53.40
2017-04-29T19:41:48.906Z,53.40
2017-04-29T19:44:16.556Z,53.50
2017-04-29T19:46:44.251Z,53.30
2017-04-29T19:49:11.529Z,53.40
2017-04-29T19:51:38.808Z,53.50
2017-04-29T19:54:06.140Z,53.60
2017-04-29T19:56:33.427Z,53.70
2017-04-29T19:59:00.310Z,53.70
2017-04-29T20:01:27.658Z,53.60
2017-04-29T20:03:54.944Z,53.70
2017-04-29T20:06:22.299Z,53.70
2017-04-29T20:08:49.230Z,53.70
2017-04-29T20:11:16.525Z,54.00
2017-04-29T20:13:43.806Z,54.20
2017-04-29T20:16:11.497Z,54.30
2017-04-29T20:18:38.917Z,54.40
2017-04-29T20:21:06.185Z,54.50
2017-04-29T20:23:33.115Z,54.50
2017-04-29T20:26:00.439Z,54.60
2017-04-29T20:28:27.718Z,54.70
2017-04-29T20:30:55.041Z,54.80
2017-04-29T20:33:22.323Z,54.60
2017-04-29T20:35:49.602Z,54.60
2017-04-29T20:38:17.295Z,54.80
2017-04-29T20:40:44.183Z,54.80
2017-04-29T20:43:11.454Z,54.80
2017-04-29T20:45:38.865Z,55.00
2017-04-29T20:48:06.159Z,54.80
2017-04-29T20:50:33.822Z,55.20
2017-04-29T20:53:01.146Z,55.00
2017-04-29T20:55:28.498Z,55.20
2017-04-29T20:57:55.784Z,55.30
2017-04-29T21:00:23.098Z,57.10
2017-04-29T21:02:49.983Z,57.10
2017-04-29T21:05:17.258Z,55.40
2017-04-29T21:07:44.941Z,55.40
2017-04-29T21:10:12.218Z,55.40
2017-04-29T21:12:39.498Z,55.60
2017-04-29T21:15:07.045Z,55.60
2017-04-29T21:17:34.327Z,55.60
2017-04-29T21:20:01.632Z,55.80
2017-04-29T21:22:28.957Z,56.00
2017-04-29T21:24:56.603Z,56.10
2017-04-29T21:27:23.881Z,56.10
2017-04-29T21:29:51.181Z,56.10
2017-04-29T21:32:18.462Z,56.10
2017-04-29T21:34:45.388Z,56.10
2017-04-29T21:37:12.663Z,55.90
2017-04-29T21:39:39.966Z,56.00
2017-04-29T21:42:06.912Z,56.00
2017-04-29T21:44:34.173Z,56.20
2017-04-29T21:47:01.493Z,56.20
2017-04-29T21:49:29.198Z,56.30
2017-04-29T21:51:56.494Z,56.80
2017-04-29T21:54:23.814Z,56.70
2017-04-29T21:56:51.104Z,56.70
2017-04-29T21:59:17.982Z,56.70
2017-04-29T22:01:45.298Z,56.70
2017-04-29T22:04:12.582Z,56.70
2017-04-29T22:06:39.470Z,56.70
2017-04-29T22:09:06.863Z,56.60
2017-04-29T22:11:34.163Z,56.70
2017-04-29T22:14:01.510Z,56.70
2017-04-29T22:16:28.790Z,56.60
2017-04-29T22:18:56.075Z,56.70
2017-04-29T22:21:23.009Z,56.70
2017-04-29T22:23:50.291Z,56.90
2017-04-29T22:26:17.951Z,57.00
2017-04-29T22:28:44.866Z,57.00
2017-04-29T22:31:12.146Z,57.10
2017-04-29T22:33:39.865Z,57.10
2017-04-29T22:36:07.183Z,57.00
2017-04-29T22:38:34.834Z,56.80
2017-04-29T22:41:02.491Z,57.00
2017-04-29T22:43:30.186Z,57.10
2017-04-29T22:45:57.066Z,57.10
2017-04-29T22:48:24.346Z,57.10
2017-04-29T22:50:51.765Z,57.30
2017-04-29T22:53:19.052Z,57.20
2017-04-29T22:55:46.377Z,57.30
2017-04-29T22:58:13.290Z,57.30
2017-04-29T23:00:40.207Z,57.40
2017-04-29T23:03:07.857Z,57.50
2017-04-29T23:05:35.166Z,57.40
2017-04-29T23:08:02.445Z,57.50
2017-04-29T23:10:29.731Z,57.50
2017-04-29T23:12:57.061Z,57.30
2017-04-29T23:15:24.403Z,57.20
2017-04-29T23:17:51.696Z,57.20
2017-04-29T23:20:19.014Z,57.30
2017-04-29T23:22:46.302Z,57.50
2017-04-29T23:25:13.825Z,57.50
2017-04-29T23:27:41.107Z,57.60
2017-04-29T23:30:08.389Z,57.80
2017-04-29T23:32:35.793Z,57.80
2017-04-29T23:35:03.154Z,57.60
2017-04-29T23:37:30.477Z,57.80
2017-04-29T23:39:57.761Z,57.80
2017-04-29T23:42:25.124Z,57.70
2017-04-29T23:44:52.469Z,57.70
2017-04-29T23:47:19.413Z,57.70
2017-04-29T23:49:46.693Z,57.90
2017-04-29T23:52:13.623Z,57.90
2017-04-29T23:54:40.909Z,58.00
2017-04-29T23:57:08.182Z,57.90
2017-04-29T23:59:35.110Z,57.90
